Time;durP1;ratioP1;P1;durP2;ratioP2;P2;SDS_P1;SDS_P2;PMS_P1;PMS_P2;Temp;Humidity;BMP_temperature;BMP_pressure;BME280_temperature;BME280_humidity;BME280_pressure;Samples;Min_cycle;Max_cycle;Signal;HPM_P1;HPM_P2
2021/07/23 09:45:38;;;;;;;4.35;1.02;;;;;;;27.54;56.84;98929.48;1824177;78;23331;-69
2021/07/23 09:48:12;;;;;;;5.72;1.15;;;;;;;27.72;55.33;98929.03;1785557;80;20880;-69
2021/07/23 09:50:45;;;;;;;3.58;1.20;;;;;;;27.80;54.83;98932.84;1785585;79;21097;-70
2021/07/23 09:53:21;;;;;;;2.65;0.95;;;;;;;27.90;55.41;98923.48;1785640;79;20959;-70
2021/07/23 09:55:49;;;;;;;4.33;0.90;;;;;;;28.01;55.48;98924.86;1785730;79;20856;-70
2021/07/23 09:58:21;;;;;;;2.80;0.98;;;;;;;28.12;53.52;98904.51;1785703;79;20904;-70
2021/07/23 10:00:54;;;;;;;;;;;;;;;28.24;51.61;98906.73;1788723;80;20884;-69
2021/07/23 10:03:23;;;;;;;4.42;1.00;;;;;;;28.36;52.80;98908.43;1785723;80;21214;-70
2021/07/23 10:05:54;;;;;;;5.25;1.20;;;;;;;28.42;51.10;98909.80;1785889;80;20880;-70
2021/07/23 10:08:24;;;;;;;2.67;0.82;;;;;;;28.42;50.63;98908.45;1763677;80;20896;-70
2021/07/23 10:10:52;;;;;;;7.58;1.20;;;;;;;28.38;49.39;98911.02;1786029;79;21379;-70
2021/07/23 10:13:23;;;;;;;2.35;1.10;;;;;;;28.31;49.49;98903.02;1785680;80;20836;-70
2021/07/23 10:15:51;;;;;;;2.15;0.98;;;;;;;28.27;49.97;98907.84;1786055;79;21798;-70
2021/07/23 10:18:19;;;;;;;2.00;1.20;;;;;;;28.22;49.41;98901.90;1785572;79;20860;-69
2021/07/23 10:20:46;;;;;;;3.35;1.10;;;;;;;28.15;49.01;98898.83;1785555;79;21000;-69
2021/07/23 10:23:22;;;;;;;8.23;1.35;;;;;;;28.12;49.07;98895.52;1785549;79;21512;-65
2021/07/23 10:25:51;;;;;;;4.33;1.20;;;;;;;28.16;49.01;98891.06;1785651;79;21429;-65
2021/07/23 10:28:41;;;;;;;6.53;1.67;;;;;;;28.25;50.13;98889.48;1785637;79;21143;-65
2021/07/23 10:31:28;;;;;;;7.53;1.65;;;;;;;28.33;49.69;98886.98;1785540;79;20896;-67
2021/07/23 10:34:02;;;;;;;4.90;1.60;;;;;;;28.31;47.92;98894.89;1785611;79;20873;-65
2021/07/23 10:36:40;;;;;;;5.53;1.22;;;;;;;28.24;47.71;98893.17;1776460;79;20891;-63
2021/07/23 10:39:17;;;;;;;6.92;1.20;;;;;;;28.25;49.17;98894.04;1761107;80;21386;-66
2021/07/23 10:41:54;;;;;;;4.42;1.02;;;;;;;28.28;48.39;98889.22;1754365;81;21140;-64
2021/07/23 10:44:35;;;;;;;6.03;1.40;;;;;;;28.32;46.44;98889.33;1742174;80;21398;-64
2021/07/23 10:47:04;;;;;;;3.20;1.20;;;;;;;28.40;46.93;98888.73;1756864;80;20892;-64
2021/07/23 10:49:39;;;;;;;5.17;1.35;;;;;;;28.52;47.50;98884.98;1756342;81;20951;-65
2021/07/23 10:52:07;;;;;;;6.90;2.20;;;;;;;28.61;46.76;98886.92;1755708;80;20970;-62
2021/07/23 10:54:56;;;;;;;5.70;1.40;;;;;;;28.62;46.69;98879.14;1744369;80;21859;-62
2021/07/23 10:57:24;;;;;;;5.33;1.05;;;;;;;28.63;46.70;98886.80;1757693;80;20945;-62
2021/07/23 10:59:52;;;;;;;4.22;1.15;;;;;;;28.57;46.18;98885.95;1784102;79;20992;-62
2021/07/23 11:02:31;;;;;;;6.25;1.20;;;;;;;28.47;46.62;98884.02;1788209;80;21069;-62
2021/07/23 11:05:08;;;;;;;1.30;0.85;;;;;;;28.41;47.10;98881.81;1785532;78;21469;-62
2021/07/23 11:07:35;;;;;;;2.45;1.02;;;;;;;28.38;48.11;98881.17;1785898;78;20997;-62
2021/07/23 11:10:05;;;;;;;4.15;1.02;;;;;;;28.42;47.07;98877.25;1788078;78;20961;-62
2021/07/23 11:12:39;;;;;;;3.12;1.05;;;;;;;28.48;46.92;98870.81;1784324;78;20986;-62
2021/07/23 11:15:08;;;;;;;4.67;1.22;;;;;;;28.61;47.27;98869.78;1751105;80;20974;-63
2021/07/23 11:17:53;;;;;;;3.40;1.10;;;;;;;28.76;47.28;98869.33;1788285;78;21453;-63
2021/07/23 11:20:25;;;;;;;5.15;0.90;;;;;;;28.89;46.50;98868.34;1786229;80;21074;-63
2021/07/23 11:22:53;;;;;;;6.47;1.20;;;;;;;28.92;45.29;98868.95;1784296;78;20947;-62
2021/07/23 11:25:21;;;;;;;2.25;1.20;;;;;;;28.90;46.16;98870.94;1788072;79;20950;-62
2021/07/23 11:27:53;;;;;;;5.08;0.93;;;;;;;28.93;47.31;98863.88;1788188;78;20989;-62
2021/07/23 11:30:24;;;;;;;4.78;1.22;;;;;;;28.99;48.61;98861.99;1782538;80;21030;-63
2021/07/23 11:32:57;;;;;;;5.00;1.95;;;;;;;29.09;47.98;98862.91;1782317;78;21166;-62
2021/07/23 11:35:29;;;;;;;6.25;2.60;;;;;;;29.19;48.10;98859.40;1787871;78;20963;-62
2021/07/23 11:37:58;;;;;;;2.15;1.35;;;;;;;29.27;47.75;98854.16;1781881;79;21462;-64
2021/07/23 11:40:25;;;;;;;2.92;1.20;;;;;;;29.34;47.55;98852.66;1781931;79;21507;-63
2021/07/23 11:42:57;;;;;;;6.85;0.95;;;;;;;29.41;46.84;98860.13;1784310;78;21060;-63
2021/07/23 11:45:32;;;;;;;;;;;;;;;29.45;46.01;98856.67;1779675;78;21518;-63
2021/07/23 11:48:16;;;;;;;1.45;0.90;;;;;;;29.43;44.42;98863.61;1767340;79;20098;-63
2021/07/23 11:50:56;;;;;;;3.27;1.20;;;;;;;29.34;43.12;98858.09;1767840;80;20917;-63
2021/07/23 11:53:25;;;;;;;4.45;1.47;;;;;;;29.19;43.34;98855.33;1770781;79;20995;-66
2021/07/23 11:55:54;;;;;;;7.47;1.40;;;;;;;29.04;44.21;98860.23;1770289;79;20924;-63
2021/07/23 11:58:30;;;;;;;6.28;1.02;;;;;;;28.95;45.46;98848.31;1764220;79;21091;-72
2021/07/23 12:00:58;;;;;;;4.92;1.35;;;;;;;28.90;45.61;98857.36;1762262;80;21018;-71
2021/07/23 12:03:26;;;;;;;3.58;1.17;;;;;;;28.84;44.98;98853.28;1770318;80;21039;-71
2021/07/23 12:05:54;;;;;;;7.40;1.22;;;;;;;28.80;45.65;98853.15;1765994;79;20935;-72
2021/07/23 12:08:23;;;;;;;2.12;1.20;;;;;;;28.81;47.36;98845.86;1767923;79;21056;-72
2021/07/23 12:10:53;;;;;;;3.27;1.30;;;;;;;28.90;47.39;98845.14;1770713;79;21133;-71
2021/07/23 12:13:22;;;;;;;2.58;1.30;;;;;;;28.99;47.33;98847.06;1752999;81;20971;-64
2021/07/23 12:15:54;;;;;;;7.42;2.00;;;;;;;29.13;46.81;98847.22;1770415;79;20955;-70
2021/07/23 12:18:23;;;;;;;2.45;1.40;;;;;;;29.23;45.30;98841.34;1769796;79;20959;-71
2021/07/23 12:20:52;;;;;;;3.77;1.20;;;;;;;29.22;43.74;98838.27;1765170;79;20974;-71
2021/07/23 12:23:26;;;;;;;2.25;1.10;;;;;;;29.14;43.25;98841.65;1769390;79;21161;-71
2021/07/23 12:25:55;;;;;;;4.15;1.40;;;;;;;29.10;44.46;98840.69;1768108;80;20936;-71
2021/07/23 12:28:23;;;;;;;4.53;1.42;;;;;;;29.13;45.28;98834.50;1769417;79;20970;-71
2021/07/23 12:30:51;;;;;;;4.85;1.55;;;;;;;29.22;44.38;98831.47;1750285;81;20982;-71
2021/07/23 12:33:30;;;;;;;9.20;1.30;;;;;;;29.34;45.88;98833.14;1765382;79;20896;-71
2021/07/23 12:35:58;;;;;;;2.62;1.05;;;;;;;29.48;44.44;98838.73;1768480;79;21039;-70
2021/07/23 12:38:26;;;;;;;3.67;1.32;;;;;;;29.63;43.37;98831.08;1774475;79;20915;-70
2021/07/23 12:40:56;;;;;;;5.08;1.35;;;;;;;29.78;43.50;98833.77;1774264;79;21443;-69
2021/07/23 12:43:24;;;;;;;4.75;1.00;;;;;;;29.95;44.42;98830.41;1765145;79;21019;-71
2021/07/23 12:45:56;;;;;;;3.10;1.27;;;;;;;30.08;44.35;98829.69;1764841;79;20963;-71
2021/07/23 12:48:23;;;;;;;;;;;;;;;30.24;44.37;98831.00;1750639;81;21192;-70
2021/07/23 12:51:11;;;;;;;4.72;1.45;;;;;;;30.37;44.58;98831.62;1768406;79;20117;-71
2021/07/23 12:53:42;;;;;;;5.65;1.40;;;;;;;30.48;43.33;98827.89;1767348;79;20963;-69
2021/07/23 12:56:10;;;;;;;2.52;1.10;;;;;;;30.62;44.29;98828.86;1767730;79;20963;-68
2021/07/23 12:58:47;;;;;;;4.83;1.50;;;;;;;30.73;43.71;98827.34;1770459;80;20947;-69
2021/07/23 13:01:17;;;;;;;5.22;1.30;;;;;;;30.83;43.45;98821.92;1751442;81;21427;-67
2021/07/23 13:03:45;;;;;;;3.58;1.60;;;;;;;30.96;42.98;98826.56;1766063;79;20975;-69
2021/07/23 13:06:17;;;;;;;24.43;1.77;;;;;;;30.99;42.25;98826.27;1761266;79;21027;-70
2021/07/23 13:08:44;;;;;;;2.72;1.20;;;;;;;30.97;41.75;98831.00;1761784;81;20966;-69
2021/07/23 13:11:12;;;;;;;5.37;1.15;;;;;;;30.89;41.27;98824.06;1774122;81;20967;-69
2021/07/23 13:13:42;;;;;;;6.78;1.42;;;;;;;30.80;40.70;98820.34;1774929;79;20940;-69
2021/07/23 13:16:14;;;;;;;5.60;1.50;;;;;;;30.69;40.56;98822.69;1776318;80;20880;-70
2021/07/23 13:18:43;;;;;;;5.58;1.20;;;;;;;30.54;41.01;98825.46;1775293;79;20985;-70
2021/07/23 13:21:16;;;;;;;4.50;1.00;;;;;;;30.43;41.70;98821.52;1758849;80;20966;-69
2021/07/23 13:23:41;;;;;;;3.87;1.70;;;;;;;30.42;42.60;98822.53;1776779;79;20877;-68
2021/07/23 13:26:10;;;;;;;8.93;1.90;;;;;;;30.44;42.17;98821.88;1787114;79;21123;-63
2021/07/23 13:28:38;;;;;;;4.67;1.17;;;;;;;30.46;42.96;98819.87;1777230;79;20919;-64
2021/07/23 13:31:07;;;;;;;9.13;1.50;;;;;;;30.44;42.16;98817.80;1773219;79;20915;-70
2021/07/23 13:33:35;;;;;;;6.37;1.47;;;;;;;30.42;42.33;98820.30;1787390;79;20962;-70
2021/07/23 13:36:15;;;;;;;12.70;1.80;;;;;;;30.36;41.78;98821.73;1787421;79;20981;-71
2021/07/23 13:39:00;;;;;;;3.80;1.80;;;;;;;30.27;41.03;98818.01;1782661;79;21071;-70
2021/07/23 13:41:27;;;;;;;7.22;1.55;;;;;;;30.12;40.77;98819.39;1780971;79;21550;-70
2021/07/23 13:43:56;;;;;;;6.00;1.60;;;;;;;29.93;42.04;98814.74;1760247;78;21425;-71
2021/07/23 13:46:25;;;;;;;9.25;1.27;;;;;;;29.79;42.86;98820.54;1759838;79;21388;-69
2021/07/23 13:48:55;;;;;;;2.12;1.22;;;;;;;29.62;42.81;98823.92;1768505;81;20978;-71
2021/07/23 13:51:22;;;;;;;4.53;1.20;;;;;;;29.41;43.12;98823.45;1768063;80;21228;-70
2021/07/23 13:53:52;;;;;;;3.42;1.35;;;;;;;29.21;43.45;98824.31;1767689;81;20987;-71
2021/07/23 13:56:20;;;;;;;22.32;2.92;;;;;;;29.03;44.11;98830.00;1767778;80;20856;-70
2021/07/23 13:58:48;;;;;;;13.20;2.20;;;;;;;28.88;45.10;98834.05;1771639;80;20904;-70
2021/07/23 14:01:15;;;;;;;2.65;1.47;;;;;;;28.76;46.44;98828.62;1765425;80;20900;-70
2021/07/23 14:03:43;;;;;;;6.53;2.08;;;;;;;28.72;46.03;98827.16;1770067;79;21108;-71
2021/07/23 14:06:11;;;;;;;9.88;1.72;;;;;;;28.73;46.71;98822.09;1767853;80;21402;-72
2021/07/23 14:08:39;;;;;;;10.63;2.20;;;;;;;28.79;47.22;98825.64;1768205;81;20900;-72
2021/07/23 14:11:06;;;;;;;5.22;1.45;;;;;;;28.87;47.52;98825.54;1767871;80;21022;-69
2021/07/23 14:13:35;;;;;;;6.62;1.20;;;;;;;28.96;47.50;98825.60;1772376;79;21034;-71
2021/07/23 14:16:04;;;;;;;4.20;1.67;;;;;;;29.03;47.07;98820.50;1761312;81;21819;-71
2021/07/23 14:18:33;;;;;;;3.60;1.27;;;;;;;29.12;46.93;98819.69;1759791;81;21482;-72
2021/07/23 14:21:00;;;;;;;6.83;1.70;;;;;;;29.23;45.96;98820.11;1774009;79;20901;-71
2021/07/23 14:23:29;;;;;;;6.75;1.60;;;;;;;29.33;44.75;98811.53;1774153;80;20936;-71
2021/07/23 14:25:58;;;;;;;2.05;1.42;;;;;;;29.43;45.17;98820.59;1774086;81;21426;-72
2021/07/23 14:28:26;;;;;;;6.78;1.60;;;;;;;29.50;44.71;98816.36;1759781;81;21135;-70
2021/07/23 14:30:53;;;;;;;4.85;1.50;;;;;;;29.55;44.14;98818.67;1770957;79;20899;-70
2021/07/23 14:33:21;;;;;;;3.08;1.60;;;;;;;29.59;43.58;98810.60;1771777;79;21007;-71
2021/07/23 14:35:49;;;;;;;3.20;1.87;;;;;;;29.61;42.46;98809.97;1774307;79;20877;-72
2021/07/23 14:38:17;;;;;;;5.25;1.70;;;;;;;29.62;42.18;98806.25;1774169;79;21427;-72
2021/07/23 14:40:44;;;;;;;5.15;1.80;;;;;;;29.61;42.34;98813.55;1774173;79;21130;-71
2021/07/23 14:43:11;;;;;;;8.00;1.70;;;;;;;29.59;42.50;98807.39;1769943;81;20904;-72
2021/07/23 14:45:39;;;;;;;4.47;1.30;;;;;;;29.53;41.30;98808.44;1776190;80;21080;-71
2021/07/23 14:48:07;;;;;;;4.37;2.10;;;;;;;29.43;41.05;98811.08;1790682;80;20931;-71
2021/07/23 14:50:35;;;;;;;12.98;6.78;;;;;;;29.34;41.85;98812.77;1771225;80;20868;-70
2021/07/23 14:53:04;;;;;;;6.55;4.55;;;;;;;29.25;42.02;98810.83;1790115;78;21165;-71
2021/07/23 14:55:33;;;;;;;7.67;2.67;;;;;;;29.21;41.93;98809.38;1789504;78;21604;-67
2021/07/23 14:58:01;;;;;;;4.85;2.00;;;;;;;29.18;41.86;98806.93;1785208;79;20986;-70
2021/07/23 15:00:29;;;;;;;6.10;1.40;;;;;;;29.15;42.41;98808.06;1786195;79;21029;-71
2021/07/23 15:02:58;;;;;;;4.58;1.65;;;;;;;29.14;42.08;98804.98;1784674;79;20910;-72
2021/07/23 15:05:25;;;;;;;4.00;1.57;;;;;;;29.15;42.83;98808.56;1783745;79;21136;-72
2021/07/23 15:07:59;;;;;;;4.87;2.37;;;;;;;29.10;41.99;98806.25;1783443;80;21536;-73
2021/07/23 15:10:29;;;;;;;14.83;3.58;;;;;;;29.05;42.72;98806.28;1766965;79;21513;-72
2021/07/23 15:12:59;;;;;;;10.93;2.50;;;;;;;29.01;43.99;98810.27;1787100;78;20935;-71
2021/07/23 15:15:26;;;;;;;9.43;2.10;;;;;;;28.99;44.24;98813.61;1769030;78;20928;-71
2021/07/23 15:17:57;;;;;;;6.55;2.25;;;;;;;28.96;44.61;98805.23;1790917;78;21156;-71
2021/07/23 15:20:24;;;;;;;8.38;4.08;;;;;;;28.96;44.58;98813.88;1783909;80;20938;-73
2021/07/23 15:22:53;;;;;;;4.53;1.90;;;;;;;28.93;44.25;98814.14;1784082;78;20944;-72
2021/07/23 15:25:22;;;;;;;3.80;1.73;;;;;;;28.89;44.58;98811.34;1768805;80;21478;-72
2021/07/23 15:27:50;;;;;;;2.92;1.35;;;;;;;28.86;44.16;98813.81;1784981;80;20894;-72
2021/07/23 15:30:17;;;;;;;24.00;1.87;;;;;;;28.82;43.42;98810.44;1784636;79;21153;-71
2021/07/23 15:32:46;;;;;;;15.43;2.22;;;;;;;28.80;43.10;98806.14;1784906;79;20966;-71
2021/07/23 15:35:16;;;;;;;3.50;1.75;;;;;;;28.78;43.48;98808.12;1785109;80;20974;-73
2021/07/23 15:37:46;;;;;;;7.22;2.40;;;;;;;28.72;43.18;98805.94;1790862;80;20987;-73
2021/07/23 15:40:16;;;;;;;4.83;2.60;;;;;;;28.69;42.86;98808.92;1785633;80;21532;-71
2021/07/23 15:42:43;;;;;;;8.10;1.85;;;;;;;28.66;43.31;98806.47;1785537;79;21786;-66
2021/07/23 15:45:12;;;;;;;5.17;1.40;;;;;;;28.63;43.37;98811.66;1790239;78;20958;-68
2021/07/23 15:47:40;;;;;;;3.42;1.50;;;;;;;28.59;42.70;98808.84;1784731;79;20945;-73
2021/07/23 15:50:09;;;;;;;6.30;1.47;;;;;;;28.53;43.49;98806.16;1785110;79;21052;-75
2021/07/23 15:52:37;;;;;;;10.38;1.50;;;;;;;28.47;43.66;98799.91;1787467;80;20871;-73
2021/07/23 15:55:06;;;;;;;6.08;2.00;;;;;;;28.42;44.08;98804.00;1782770;79;21118;-74
2021/07/23 15:57:34;;;;;;;4.45;1.50;;;;;;;28.36;44.08;98803.98;1785915;79;20927;-74
2021/07/23 16:00:03;;;;;;;20.35;14.00;;;;;;;28.31;44.21;98804.02;1784098;80;20993;-74
2021/07/23 16:02:34;;;;;;;13.55;9.28;;;;;;;28.25;44.41;98798.61;1787522;78;20989;-73
2021/07/23 16:05:02;;;;;;;5.17;3.75;;;;;;;28.20;44.80;98804.39;1791462;78;20945;-73
2021/07/23 16:07:31;;;;;;;5.47;2.50;;;;;;;28.14;44.64;98805.40;1790489;78;21132;-73
2021/07/23 16:09:58;;;;;;;3.90;1.60;;;;;;;28.09;45.03;98800.36;1790353;78;20879;-72
2021/07/23 16:12:28;;;;;;;6.22;1.42;;;;;;;28.02;45.32;98796.44;1790771;78;21446;-73
2021/07/23 16:14:56;;;;;;;4.85;1.40;;;;;;;27.98;46.32;98804.95;1790411;78;20887;-73
2021/07/23 16:17:24;;;;;;;4.22;1.20;;;;;;;27.90;46.50;98806.91;1791087;80;20868;-72
2021/07/23 16:19:52;;;;;;;4.50;1.60;;;;;;;27.83;46.71;98804.34;1791110;79;21092;-73
2021/07/23 16:22:20;;;;;;;7.33;3.10;;;;;;;27.74;47.06;98802.39;1790990;78;20908;-73
2021/07/23 16:24:47;;;;;;;11.18;2.67;;;;;;;27.66;47.83;98801.67;1791140;79;21165;-73
2021/07/23 16:27:15;;;;;;;3.65;1.60;;;;;;;27.58;49.19;98805.46;1771360;80;20923;-73
2021/07/23 16:29:43;;;;;;;3.80;1.60;;;;;;;27.48;50.24;98804.48;1791012;78;20966;-74
2021/07/23 16:32:11;;;;;;;3.20;1.60;;;;;;;27.39;50.50;98803.84;1791462;80;21210;-73
2021/07/23 16:34:38;;;;;;;10.38;1.75;;;;;;;27.28;51.16;98808.27;1790946;78;20963;-74
2021/07/23 16:37:06;;;;;;;7.70;1.80;;;;;;;27.19;51.97;98805.44;1791164;78;20912;-69
2021/07/23 16:39:35;;;;;;;6.83;1.80;;;;;;;27.10;52.74;98811.59;1790853;80;21463;-67
2021/07/23 16:42:04;;;;;;;3.30;1.50;;;;;;;27.01;54.44;98806.41;1790705;78;20924;-68
2021/07/23 16:44:31;;;;;;;5.95;2.20;;;;;;;26.91;55.12;98803.99;1790638;79;21194;-67
2021/07/23 16:46:59;;;;;;;9.13;2.10;;;;;;;26.80;56.83;98806.68;1770674;80;20885;-68
2021/07/23 16:49:28;;;;;;;4.47;1.85;;;;;;;26.70;57.53;98807.02;1743679;81;20980;-72
2021/07/23 16:51:55;;;;;;;4.62;1.95;;;;;;;26.58;58.48;98807.48;1731349;82;20900;-70
2021/07/23 16:54:23;;;;;;;3.80;1.70;;;;;;;26.48;60.40;98811.84;1744135;82;21023;-71
2021/07/23 16:56:51;;;;;;;5.33;2.17;;;;;;;26.36;62.16;98806.88;1748007;81;21027;-73
2021/07/23 16:59:20;;;;;;;6.00;2.55;;;;;;;26.26;64.38;98812.09;1757395;81;20939;-71
2021/07/23 17:01:48;;;;;;;6.65;2.75;;;;;;;26.14;65.89;98808.10;1748224;79;21528;-74
2021/07/23 17:04:16;;;;;;;10.28;1.90;;;;;;;26.03;67.38;98807.07;1757512;79;20864;-72
2021/07/23 17:06:45;;;;;;;7.60;1.98;;;;;;;25.92;69.26;98811.52;1743900;81;20967;-72
2021/07/23 17:09:13;;;;;;;4.50;2.17;;;;;;;25.82;70.46;98809.12;1743967;81;21913;-72
2021/07/23 17:11:41;;;;;;;4.87;1.50;;;;;;;25.70;71.81;98810.89;1743689;81;21488;-72
2021/07/23 17:14:09;;;;;;;4.33;1.77;;;;;;;25.61;73.05;98811.53;1743735;81;20919;-72
2021/07/23 17:16:37;;;;;;;4.33;1.82;;;;;;;25.51;74.33;98811.30;1748487;79;20844;-73
2021/07/23 17:19:04;;;;;;;6.00;1.62;;;;;;;25.40;75.52;98814.78;1756245;79;20920;-73
2021/07/23 17:21:34;;;;;;;2.83;1.47;;;;;;;25.29;76.64;98816.04;1744022;81;21119;-72
2021/07/23 17:24:03;;;;;;;3.00;1.50;;;;;;;25.19;77.65;98818.16;1743602;81;20888;-72
2021/07/23 17:26:30;;;;;;;4.67;2.02;;;;;;;25.08;78.90;98819.78;1744162;81;21442;-71
2021/07/23 17:28:58;;;;;;;6.97;1.85;;;;;;;25.00;79.95;98823.96;1744072;81;20941;-71
2021/07/23 17:31:26;;;;;;;13.08;2.30;;;;;;;24.89;80.89;98816.59;1744017;81;21015;-73
2021/07/23 17:33:53;;;;;;;6.50;1.98;;;;;;;24.79;82.71;98818.20;1761627;79;21072;-72
2021/07/23 17:36:21;;;;;;;5.55;2.12;;;;;;;24.69;83.92;98822.02;1743662;81;21007;-71
2021/07/23 17:38:49;;;;;;;6.83;2.98;;;;;;;24.59;85.14;98823.59;1743514;81;21410;-66
2021/07/23 17:41:19;;;;;;;8.38;2.52;;;;;;;24.49;85.82;98822.01;1743748;81;20877;-67
2021/07/23 17:43:49;;;;;;;6.67;2.30;;;;;;;24.40;86.68;98831.20;1743491;82;20884;-67
2021/07/23 17:46:17;;;;;;;10.45;2.55;;;;;;;24.29;87.28;98822.49;1743503;81;21152;-67
2021/07/23 17:48:48;;;;;;;8.33;3.02;;;;;;;24.20;87.61;98829.81;1765172;80;20982;-68
2021/07/23 17:51:15;;;;;;;12.93;3.57;;;;;;;24.10;88.31;98829.53;1774773;78;20923;-68
2021/07/23 17:53:44;;;;;;;12.33;3.60;;;;;;;24.00;88.85;98832.94;1777243;79;20927;-69
2021/07/23 17:56:14;;;;;;;15.23;3.60;;;;;;;23.89;89.63;98832.30;1768384;80;21528;-69
2021/07/23 17:58:43;;;;;;;11.03;3.70;;;;;;;23.78;91.25;98831.66;1760373;80;21804;-71
2021/07/23 18:01:12;;;;;;;7.45;3.17;;;;;;;23.69;92.41;98835.42;1780348;80;21465;-71
2021/07/23 18:03:42;;;;;;;8.03;3.45;;;;;;;23.60;94.66;98847.63;1790485;79;20958;-71
2021/07/23 18:06:10;;;;;;;13.62;2.90;;;;;;;23.51;96.59;98853.08;1790439;78;20982;-71
2021/07/23 18:08:38;;;;;;;9.90;2.58;;;;;;;23.41;97.97;98851.94;1781918;80;20923;-72
2021/07/23 18:11:07;;;;;;;5.00;2.22;;;;;;;23.33;99.18;98852.03;1767832;80;21192;-71
2021/07/23 18:13:54;;;;;;;17.82;2.90;;;;;;;23.24;100.00;98855.69;1787002;79;20924;-68
2021/07/23 18:16:23;;;;;;;11.83;3.10;;;;;;;23.17;100.00;98858.34;1753071;80;21920;-71
2021/07/23 18:18:52;;;;;;;4.92;2.80;;;;;;;23.08;100.00;98862.95;1784960;79;21473;-72
2021/07/23 18:21:21;;;;;;;7.03;3.35;;;;;;;22.99;100.00;98856.79;1788914;78;21069;-70
2021/07/23 18:23:49;;;;;;;5.70;3.37;;;;;;;22.90;100.00;98861.39;1803948;78;21081;-71
2021/07/23 18:26:16;;;;;;;6.85;3.40;;;;;;;22.84;100.00;98867.14;1784411;80;20899;-71
2021/07/23 18:28:47;;;;;;;12.37;3.42;;;;;;;22.75;100.00;98868.53;1784832;78;20946;-71
2021/07/23 18:31:14;;;;;;;8.53;3.35;;;;;;;22.67;100.00;98873.47;1787085;78;21544;-71
2021/07/23 18:33:41;;;;;;;15.20;4.10;;;;;;;22.60;100.00;98877.48;1787441;79;21022;-70
2021/07/23 18:36:09;;;;;;;8.48;3.30;;;;;;;22.52;100.00;98877.94;1785572;79;21425;-68
2021/07/23 18:38:37;;;;;;;8.33;2.85;;;;;;;22.43;100.00;98877.13;1785225;80;20927;-69
2021/07/23 18:41:05;;;;;;;8.98;3.35;;;;;;;;;;1784656;79;21006;-70
2021/07/23 18:43:32;;;;;;;8.45;3.60;;;;;;;22.28;100.00;98886.09;1784669;80;21580;-71
2021/07/23 18:46:00;;;;;;;5.62;3.10;;;;;;;22.22;100.00;98877.88;1787198;80;20844;-71
2021/07/23 18:48:28;;;;;;;4.00;2.65;;;;;;;22.14;100.00;98883.30;1789200;79;22418;-71
2021/07/23 18:50:56;;;;;;;8.23;4.08;;;;;;;22.06;100.00;98885.56;1770707;79;20888;-72
2021/07/23 18:53:26;;;;;;;9.18;3.37;;;;;;;21.99;100.00;98889.91;1779802;79;20994;-71
2021/07/23 18:55:53;;;;;;;8.65;3.15;;;;;;;21.93;100.00;98890.73;1784037;80;20931;-70
2021/07/23 18:58:21;;;;;;;5.00;2.47;;;;;;;21.86;100.00;98886.19;1786381;80;21021;-73
2021/07/23 19:00:49;;;;;;;8.28;2.58;;;;;;;21.79;100.00;98889.30;1786191;80;21092;-70
2021/07/23 19:03:20;;;;;;;4.87;2.35;;;;;;;21.73;100.00;98881.56;1788703;80;20915;-70
2021/07/23 19:05:47;;;;;;;3.30;1.57;;;;;;;21.67;100.00;98886.79;1692632;83;20939;-65
2021/07/23 19:08:16;;;;;;;6.17;2.05;;;;;;;21.62;100.00;98887.52;1757510;80;20880;-66
2021/07/23 19:10:46;;;;;;;10.82;2.15;;;;;;;21.56;100.00;98893.23;1738624;81;20947;-65
2021/07/23 19:13:16;;;;;;;8.55;1.90;;;;;;;21.51;100.00;98893.95;1757279;81;20884;-66
2021/07/23 19:15:44;;;;;;;8.70;2.27;;;;;;;21.46;100.00;98897.36;1759580;80;21418;-66
2021/07/23 19:18:12;;;;;;;4.47;1.45;;;;;;;21.40;100.00;98894.54;1785498;79;20915;-70
2021/07/23 19:20:42;;;;;;;4.80;1.87;;;;;;;21.34;100.00;98898.42;1785764;80;20974;-70
2021/07/23 19:23:11;;;;;;;8.25;1.85;;;;;;;21.28;100.00;98900.06;1778397;80;21455;-67
2021/07/23 19:25:38;;;;;;;3.90;1.70;;;;;;;21.22;100.00;98900.83;1787604;80;21168;-73
2021/07/23 19:28:05;;;;;;;5.10;1.70;;;;;;;21.15;100.00;98899.42;1751469;80;20930;-72
2021/07/23 19:30:33;;;;;;;5.03;1.60;;;;;;;21.08;100.00;98910.09;1787879;80;21009;-69
2021/07/23 19:33:04;;;;;;;7.78;1.45;;;;;;;21.00;100.00;98906.47;1788462;80;21461;-72
2021/07/23 19:35:35;;;;;;;5.25;1.47;;;;;;;20.92;100.00;98905.52;1769351;78;20959;-72
2021/07/23 19:38:03;;;;;;;6.15;1.60;;;;;;;20.85;100.00;98909.95;1784979;79;21148;-69
2021/07/23 19:40:32;;;;;;;9.98;1.60;;;;;;;20.79;100.00;98914.25;1786627;79;20939;-71
2021/07/23 19:43:00;;;;;;;3.58;1.87;;;;;;;20.71;100.00;98914.64;1787701;78;20994;-72
2021/07/23 19:45:28;;;;;;;3.42;1.37;;;;;;;20.63;100.00;98903.45;1787599;80;20931;-72
2021/07/23 19:47:56;;;;;;;4.15;1.40;;;;;;;20.56;100.00;98910.06;1789275;79;21395;-70
2021/07/23 19:50:25;;;;;;;4.03;1.57;;;;;;;20.48;100.00;98918.48;1790619;80;21961;-70
2021/07/23 19:52:54;;;;;;;6.92;1.90;;;;;;;20.39;100.00;98910.87;1790901;78;20923;-69
2021/07/23 19:55:21;;;;;;;4.28;2.08;;;;;;;20.30;100.00;98911.30;1790724;78;21041;-70
2021/07/23 19:57:49;;;;;;;6.47;2.33;;;;;;;20.21;100.00;98912.63;1785607;78;21414;-71
2021/07/23 20:00:17;;;;;;;4.90;1.95;;;;;;;20.13;100.00;98910.31;1782409;79;20872;-71
2021/07/23 20:02:45;;;;;;;5.62;2.17;;;;;;;20.05;100.00;98912.50;1782346;80;21800;-71
2021/07/23 20:05:13;;;;;;;4.67;1.70;;;;;;;19.99;100.00;98909.25;1782541;80;20912;-72
2021/07/23 20:07:42;;;;;;;3.75;1.92;;;;;;;19.92;100.00;98918.05;1781645;79;21588;-71
2021/07/23 20:10:11;;;;;;;10.32;2.35;;;;;;;19.86;100.00;98919.65;1779994;80;21015;-72
2021/07/23 20:12:39;;;;;;;9.15;2.42;;;;;;;19.81;100.00;98921.20;1790356;78;21656;-74
2021/07/23 20:17:39;;;;;;;8.40;2.30;;;;;;;19.75;100.00;98915.27;1834430;76;22698;-73
2021/07/23 20:20:11;;;;;;;11.63;2.10;;;;;;;19.67;100.00;98922.80;1801643;78;21796;-73
2021/07/23 20:22:39;;;;;;;11.97;2.10;;;;;;;19.65;100.00;98924.67;1777691;79;21113;-72
2021/07/23 20:25:08;;;;;;;8.70;1.70;;;;;;;19.64;100.00;98925.14;1779830;79;20947;-69
2021/07/23 20:27:35;;;;;;;3.55;1.47;;;;;;;19.60;100.00;98923.55;1782006;79;20884;-71
2021/07/23 20:30:05;;;;;;;3.35;1.50;;;;;;;19.57;100.00;98926.84;1779272;79;21478;-71
2021/07/23 20:32:34;;;;;;;3.20;2.02;;;;;;;19.52;100.00;98927.48;1780062;79;20915;-69
2021/07/23 20:35:02;;;;;;;4.42;1.82;;;;;;;19.48;100.00;98936.13;1791278;78;21834;-71
2021/07/23 20:37:36;;;;;;;5.25;1.77;;;;;;;19.42;100.00;98934.59;1788857;78;21392;-72
2021/07/23 20:40:03;;;;;;;3.98;1.90;;;;;;;19.35;100.00;98934.44;1788142;79;21022;-70
2021/07/23 20:42:31;;;;;;;6.37;2.02;;;;;;;19.30;100.00;98935.59;1790470;78;21501;-71
2021/07/23 20:45:01;;;;;;;5.70;1.65;;;;;;;19.24;100.00;98943.41;1812025;78;20903;-68
2021/07/23 20:47:29;;;;;;;6.58;1.95;;;;;;;19.17;100.00;98942.81;1815294;79;21151;-68
2021/07/23 20:49:57;;;;;;;10.40;1.95;;;;;;;19.12;100.00;98946.16;1815212;79;20868;-67
2021/07/23 20:52:24;;;;;;;4.62;2.00;;;;;;;19.08;100.00;98943.22;1794870;79;21006;-72
2021/07/23 20:54:55;;;;;;;6.97;2.08;;;;;;;19.05;100.00;98943.83;1774574;79;20887;-68
2021/07/23 20:57:23;;;;;;;9.55;2.00;;;;;;;19.01;100.00;98948.91;1786936;78;20888;-70
2021/07/23 20:59:50;;;;;;;10.58;1.90;;;;;;;18.99;100.00;98948.11;1785040;79;21371;-73
2021/07/23 21:02:18;;;;;;;6.17;2.12;;;;;;;18.97;100.00;98944.63;1788360;78;20965;-70
2021/07/23 21:04:45;;;;;;;4.22;2.22;;;;;;;18.96;100.00;98944.23;1785743;79;20967;-71
2021/07/23 21:07:13;;;;;;;3.72;1.62;;;;;;;18.95;100.00;98947.84;1785122;79;20911;-70
2021/07/23 21:09:41;;;;;;;5.15;1.98;;;;;;;18.91;100.00;98948.41;1763797;80;21378;-70
2021/07/23 21:12:10;;;;;;;3.92;1.80;;;;;;;18.87;100.00;98955.69;1792283;78;21118;-73
2021/07/23 21:14:37;;;;;;;5.53;2.10;;;;;;;18.83;100.00;98957.22;1799251;78;20901;-69
2021/07/23 21:17:06;;;;;;;7.53;1.80;;;;;;;18.76;100.00;98953.07;1791392;78;21402;-70
2021/07/23 21:19:34;;;;;;;7.47;2.22;;;;;;;18.71;100.00;98958.61;1791387;78;20974;-70
2021/07/23 21:22:02;;;;;;;6.28;2.35;;;;;;;18.67;100.00;98954.80;1791543;78;20954;-70
2021/07/23 21:24:30;;;;;;;3.62;2.20;;;;;;;18.61;100.00;98953.22;1789412;80;21128;-71
2021/07/23 21:27:01;;;;;;;6.30;1.90;;;;;;;18.56;100.00;98956.08;1776642;78;21464;-70
2021/07/23 21:29:27;;;;;;;4.15;1.75;;;;;;;18.53;100.00;98958.02;1760048;81;20896;-69